Time;durP1;ratioP1;P1;durP2;ratioP2;P2;SDS_P1;SDS_P2;PMS_P1;PMS_P2;Temp;Humidity;BMP_temperature;BMP_pressure;BME280_temperature;BME280_humidity;BME280_pressure;Samples;Min_cycle;Max_cycle;Signal;HPM_P1;HPM_P2
2023/01/27 00:00:57;;;;;;;17.08;8.95;;;2.70;99.90;;;;;;5025710;28;20347;-69
2023/01/27 00:03:23;;;;;;;22.77;9.45;;;2.70;99.90;;;;;;5030209;28;20036;-70
2023/01/27 00:05:49;;;;;;;20.08;9.18;;;2.70;99.90;;;;;;5021671;28;20036;-68
2023/01/27 00:08:16;;;;;;;18.35;8.20;;;2.70;99.90;;;;;;5025383;28;20462;-68
2023/01/27 00:10:42;;;;;;;19.60;8.68;;;2.70;99.90;;;;;;5018297;28;20062;-68
2023/01/27 00:13:30;;;;;;;20.35;8.07;;;2.70;99.90;;;;;;5023052;28;20178;-68
2023/01/27 00:15:56;;;;;;;16.23;7.75;;;2.70;99.90;;;;;;5021502;28;20040;-68
2023/01/27 00:18:22;;;;;;;14.20;7.63;;;2.70;99.90;;;;;;5024255;28;20462;-70
2023/01/27 00:26:33;;;;;;;14.88;7.35;;;2.80;99.90;;;;;;5020852;28;20051;-68
2023/01/27 00:28:58;;;;;;;15.05;6.90;;;2.80;99.90;;;;;;5029857;28;20029;-69
2023/01/27 00:34:08;;;;;;;14.90;6.95;;;2.90;99.90;;;;;;5020700;28;20032;-68
2023/01/27 00:36:35;;;;;;;18.40;6.38;;;2.90;99.90;;;;;;5020015;28;20025;-69
2023/01/27 00:39:02;;;;;;;14.63;6.28;;;2.90;99.90;;;;;;5021509;28;20025;-69
2023/01/27 00:41:27;;;;;;;12.32;6.10;;;2.90;99.90;;;;;;5024548;28;20029;-69
2023/01/27 00:43:53;;;;;;;9.90;4.63;;;2.90;99.90;;;;;;5027885;28;20033;-68
2023/01/27 00:46:21;;;;;;;12.40;5.30;;;2.90;99.90;;;;;;5027452;28;20091;-68
2023/01/27 00:48:47;;;;;;;12.63;4.97;;;2.90;99.90;;;;;;5022079;28;20044;-68
2023/01/27 00:51:13;;;;;;;9.82;4.18;;;3.00;99.90;;;;;;5020579;28;20045;-69
2023/01/27 00:53:39;;;;;;;8.13;4.03;;;3.00;99.90;;;;;;5023977;28;20033;-69
2023/01/27 00:56:05;;;;;;;8.20;4.55;;;3.10;99.90;;;;;;5020944;28;20070;-68
2023/01/27 00:58:31;;;;;;;7.85;4.13;;;3.10;99.90;;;;;;5020053;28;20536;-69
2023/01/27 01:00:59;;;;;;;10.70;3.78;;;3.10;99.90;;;;;;5019209;28;20079;-68
2023/01/27 01:03:26;;;;;;;8.85;4.03;;;3.10;99.90;;;;;;5023095;28;20036;-68
2023/01/27 01:05:51;;;;;;;8.02;3.70;;;3.10;99.90;;;;;;5021091;28;20033;-68
2023/01/27 01:08:17;;;;;;;7.35;3.70;;;3.10;99.90;;;;;;5019085;28;20033;-69
2023/01/27 01:10:43;;;;;;;6.90;3.80;;;3.10;99.90;;;;;;5019422;28;20488;-68
2023/01/27 01:13:10;;;;;;;9.00;3.85;;;3.10;99.90;;;;;;5021419;28;20022;-68
2023/01/27 01:15:38;;;;;;;7.20;4.00;;;3.10;99.90;;;;;;5025910;28;20071;-70
2023/01/27 01:18:04;;;;;;;6.65;3.33;;;3.10;99.90;;;;;;5019691;28;20025;-69
2023/01/27 01:20:30;;;;;;;7.88;3.53;;;3.10;99.90;;;;;;5023345;28;20063;-68
2023/01/27 01:22:56;;;;;;;7.28;3.55;;;3.10;99.90;;;;;;5021302;28;20049;-68
2023/01/27 01:25:21;;;;;;;6.68;3.88;;;3.10;99.90;;;;;;5021413;28;20025;-68
2023/01/27 01:27:47;;;;;;;5.93;3.55;;;3.10;99.90;;;;;;5024803;28;20036;-68
2023/01/27 01:30:12;;;;;;;10.25;3.40;;;3.10;99.90;;;;;;5029613;28;20582;-68
2023/01/27 01:32:38;;;;;;;6.05;3.65;;;3.10;99.90;;;;;;5032222;28;20056;-68
2023/01/27 01:35:04;;;;;;;8.23;3.45;;;3.10;99.90;;;;;;5037564;28;20124;-69
2023/01/27 01:37:29;;;;;;;7.68;3.42;;;3.10;99.90;;;;;;5025449;28;20068;-68
2023/01/27 01:39:55;;;;;;;4.82;2.85;;;3.10;99.90;;;;;;5034216;28;20041;-69
2023/01/27 01:42:20;;;;;;;6.35;3.33;;;3.10;99.90;;;;;;5025518;28;20116;-68
2023/01/27 01:44:45;;;;;;;6.05;3.08;;;3.10;99.90;;;;;;5025415;28;20030;-69
2023/01/27 01:47:16;;;;;;;7.10;3.40;;;3.10;99.90;;;;;;5024179;28;20037;-69
2023/01/27 01:49:44;;;;;;;5.65;2.90;;;3.10;99.90;;;;;;5027521;28;20036;-68
2023/01/27 01:52:20;;;;;;;6.10;2.80;;;3.20;99.90;;;;;;5019301;28;20068;-68
2023/01/27 01:54:54;;;;;;;6.68;3.38;;;3.20;99.90;;;;;;5028057;28;20037;-70
2023/01/27 01:57:33;;;;;;;6.07;3.58;;;3.20;99.90;;;;;;5027161;28;20079;-70
2023/01/27 02:00:06;;;;;;;7.00;3.20;;;3.10;99.90;;;;;;5019809;28;20108;-69
2023/01/27 02:02:33;;;;;;;5.63;3.17;;;3.20;99.90;;;;;;5027417;28;20034;-69
2023/01/27 02:05:01;;;;;;;7.70;3.50;;;3.20;99.90;;;;;;5029769;28;20022;-68
2023/01/27 02:07:53;;;;;;;5.97;3.30;;;3.20;99.90;;;;;;5026244;28;20033;-70
2023/01/27 02:10:19;;;;;;;7.43;3.35;;;3.20;99.90;;;;;;5025635;28;20043;-68
2023/01/27 02:12:44;;;;;;;9.35;3.53;;;3.20;99.90;;;;;;5037024;28;20033;-69
2023/01/27 02:15:10;;;;;;;5.78;3.30;;;3.20;99.90;;;;;;5031374;28;20041;-68
2023/01/27 02:17:36;;;;;;;10.13;3.63;;;3.20;99.90;;;;;;5029083;28;20034;-70
2023/01/27 02:20:05;;;;;;;6.47;4.05;;;3.20;99.90;;;;;;5030537;28;20088;-70
2023/01/27 02:22:44;;;;;;;8.23;4.40;;;3.20;99.90;;;;;;5022679;28;20042;-68
2023/01/27 02:25:34;;;;;;;7.65;3.75;;;3.20;99.90;;;;;;5023080;28;20044;-68
2023/01/27 02:28:01;;;;;;;8.93;3.83;;;3.30;99.90;;;;;;5037586;28;20034;-68
2023/01/27 02:30:28;;;;;;;8.27;3.63;;;3.20;99.90;;;;;;5030346;28;20052;-69
2023/01/27 02:32:53;;;;;;;7.55;4.05;;;3.30;99.90;;;;;;5028112;28;20540;-69
2023/01/27 02:35:32;;;;;;;12.85;4.30;;;3.30;99.90;;;;;;5027864;28;20041;-68
2023/01/27 02:37:58;;;;;;;8.27;3.78;;;3.30;99.90;;;;;;5028559;28;20021;-68
2023/01/27 02:40:26;;;;;;;6.97;4.03;;;3.30;99.90;;;;;;5027707;28;20402;-69
2023/01/27 02:42:56;;;;;;;7.50;3.70;;;3.30;99.90;;;;;;5026637;28;20048;-68
2023/01/27 02:45:22;;;;;;;5.97;3.40;;;3.40;99.90;;;;;;5027819;28;20470;-68
2023/01/27 02:47:47;;;;;;;8.13;3.65;;;3.40;99.90;;;;;;5032282;28;20587;-68
2023/01/27 02:50:12;;;;;;;6.15;3.85;;;3.30;99.90;;;;;;5031509;28;20045;-69
2023/01/27 02:52:38;;;;;;;7.05;3.83;;;3.40;99.90;;;;;;5023255;28;20087;-68
2023/01/27 02:55:04;;;;;;;7.93;4.47;;;3.30;99.90;;;;;;5029547;28;20125;-69
2023/01/27 02:57:29;;;;;;;8.20;3.60;;;3.40;99.90;;;;;;5024164;28;20124;-69
2023/01/27 02:59:55;;;;;;;7.15;4.38;;;3.30;99.90;;;;;;5024170;28;20113;-69
2023/01/27 03:02:21;;;;;;;9.35;3.70;;;3.30;99.90;;;;;;5027006;28;20033;-69
2023/01/27 03:04:48;;;;;;;6.65;3.83;;;3.30;99.90;;;;;;5024097;28;20034;-69
2023/01/27 03:07:14;;;;;;;8.02;4.35;;;3.30;99.90;;;;;;5024910;28;20052;-69
2023/01/27 03:09:39;;;;;;;6.93;3.38;;;3.30;99.90;;;;;;5021883;28;20030;-68
2023/01/27 03:12:20;;;;;;;8.02;3.92;;;3.30;99.90;;;;;;5026091;28;20754;-69
2023/01/27 03:20:16;;;;;;;6.78;4.10;;;3.30;99.90;;;;;;5017467;28;20087;-68
2023/01/27 03:22:41;;;;;;;8.38;4.35;;;3.30;99.90;;;;;;5019114;28;20162;-68
2023/01/27 03:25:07;;;;;;;10.60;4.60;;;3.30;99.90;;;;;;5035999;28;20045;-68
2023/01/27 03:27:34;;;;;;;8.02;4.47;;;3.30;99.90;;;;;;5026470;28;20068;-69
2023/01/27 03:29:59;;;;;;;8.90;4.75;;;3.30;99.90;;;;;;5031973;28;20029;-68
2023/01/27 03:32:28;;;;;;;7.35;4.45;;;3.30;99.90;;;;;;5026559;28;20038;-69
2023/01/27 03:34:57;;;;;;;9.23;4.63;;;3.30;99.90;;;;;;5027381;28;20050;-69
2023/01/27 03:48:22;;;;;;;6.25;4.40;;;3.30;99.90;;;;;;5025162;28;20028;-70
2023/01/27 03:50:52;;;;;;;7.68;4.45;;;3.30;99.90;;;;;;5020850;28;20025;-68
2023/01/27 03:53:21;;;;;;;10.13;4.90;;;3.30;99.90;;;;;;5024862;28;20026;-68
2023/01/27 03:55:47;;;;;;;7.80;4.53;;;3.30;99.90;;;;;;5028656;28;20068;-69
2023/01/27 03:58:27;;;;;;;7.15;4.53;;;3.30;99.90;;;;;;5026238;28;20073;-68
2023/01/27 04:01:02;;;;;;;7.70;4.38;;;3.30;99.90;;;;;;5021349;28;20422;-68
2023/01/27 04:09:05;;;;;;;8.43;4.03;;;3.30;99.90;;;;;;5025763;28;20065;-68
2023/01/27 04:14:15;;;;;;;5.95;3.25;;;3.20;99.90;;;;;;5019898;28;20032;-68
2023/01/27 04:16:41;;;;;;;5.10;3.05;;;3.30;99.90;;;;;;5027698;28;20462;-68
2023/01/27 04:19:08;;;;;;;6.03;2.88;;;3.20;99.90;;;;;;5023885;28;20036;-69
2023/01/27 04:21:34;;;;;;;7.10;2.45;;;3.20;99.90;;;;;;5020334;28;20029;-71
2023/01/27 04:24:00;;;;;;;5.90;2.90;;;3.10;99.90;;;;;;5023676;28;20056;-68
2023/01/27 04:26:32;;;;;;;3.03;1.83;;;3.10;99.90;;;;;;5024430;28;20470;-68
2023/01/27 04:28:59;;;;;;;4.47;2.53;;;3.10;99.90;;;;;;5027889;28;20100;-68
2023/01/27 04:31:24;;;;;;;6.30;2.28;;;3.10;99.90;;;;;;5031081;28;20104;-69
2023/01/27 04:33:50;;;;;;;5.55;2.10;;;3.10;99.90;;;;;;5019869;28;20042;-69
2023/01/27 04:36:16;;;;;;;5.18;2.10;;;3.10;99.90;;;;;;5024279;28;20048;-68
2023/01/27 04:38:41;;;;;;;5.28;2.17;;;3.10;99.90;;;;;;5023180;28;20395;-69
2023/01/27 04:41:07;;;;;;;2.85;1.63;;;3.10;99.90;;;;;;5033177;28;20049;-68
2023/01/27 04:43:33;;;;;;;5.45;1.92;;;3.10;99.90;;;;;;5029398;28;20458;-68
2023/01/27 04:45:58;;;;;;;3.53;1.70;;;3.10;99.90;;;;;;5024576;28;20029;-68
2023/01/27 04:48:24;;;;;;;3.80;1.70;;;3.10;99.90;;;;;;5032757;28;20437;-69
2023/01/27 04:50:49;;;;;;;2.90;1.80;;;3.00;99.90;;;;;;5025596;28;20034;-68
2023/01/27 04:53:15;;;;;;;4.32;1.70;;;3.00;99.90;;;;;;5019085;28;20417;-68
2023/01/27 04:55:46;;;;;;;5.43;1.75;;;2.90;99.90;;;;;;5021104;28;20080;-69
2023/01/27 04:58:12;;;;;;;4.20;1.60;;;2.90;99.90;;;;;;5026789;28;20053;-68
2023/01/27 05:00:38;;;;;;;2.60;1.40;;;2.80;99.90;;;;;;5014788;28;20065;-68
2023/01/27 05:03:04;;;;;;;4.43;1.88;;;2.80;99.90;;;;;;5031221;28;20068;-68
2023/01/27 05:05:30;;;;;;;4.90;1.60;;;2.90;99.90;;;;;;5021836;28;20100;-69
2023/01/27 05:08:00;;;;;;;2.88;1.70;;;2.90;99.90;;;;;;5024885;28;20033;-69
2023/01/27 05:10:26;;;;;;;5.13;1.50;;;2.80;99.90;;;;;;5030728;28;20026;-68
2023/01/27 05:12:51;;;;;;;5.05;1.55;;;2.90;99.90;;;;;;5024082;28;20029;-68
2023/01/27 05:15:17;;;;;;;2.60;1.50;;;2.80;99.90;;;;;;5024273;28;20042;-68
2023/01/27 05:17:42;;;;;;;3.40;1.48;;;2.90;99.90;;;;;;5028311;28;20105;-68
2023/01/27 05:20:08;;;;;;;5.38;1.75;;;2.90;99.90;;;;;;5021812;28;20386;-68
2023/01/27 05:22:33;;;;;;;3.47;1.50;;;2.90;99.90;;;;;;5021071;28;20072;-69
2023/01/27 05:24:59;;;;;;;4.68;1.77;;;2.90;99.90;;;;;;5020250;28;20371;-69
2023/01/27 05:27:25;;;;;;;2.90;1.40;;;2.90;99.80;;;;;;5025060;28;20037;-70
2023/01/27 05:29:51;;;;;;;4.63;1.40;;;2.90;99.80;;;;;;5021227;28;20094;-69
2023/01/27 05:32:17;;;;;;;2.53;1.60;;;2.90;99.70;;;;;;5018895;28;20026;-71
2023/01/27 05:34:42;;;;;;;2.67;1.58;;;2.90;99.70;;;;;;5022722;28;20045;-71
2023/01/27 05:37:07;;;;;;;3.25;1.42;;;2.90;99.70;;;;;;5031544;28;20623;-70
2023/01/27 05:39:33;;;;;;;2.05;1.05;;;2.90;99.60;;;;;;5024064;28;20037;-70
2023/01/27 05:41:58;;;;;;;6.00;1.52;;;2.90;99.60;;;;;;5023559;28;20040;-70
2023/01/27 05:44:24;;;;;;;2.75;1.25;;;2.90;99.60;;;;;;5033449;28;20064;-71
2023/01/27 05:46:49;;;;;;;4.03;1.50;;;2.90;99.50;;;;;;5033026;28;20466;-70
2023/01/27 05:49:15;;;;;;;1.63;1.23;;;2.90;99.40;;;;;;5030527;28;20034;-70
2023/01/27 05:51:40;;;;;;;2.95;1.45;;;2.90;99.40;;;;;;5020008;28;20041;-70
2023/01/27 05:54:06;;;;;;;4.68;1.60;;;2.90;99.30;;;;;;5026195;28;20064;-70
2023/01/27 05:56:32;;;;;;;2.90;1.65;;;2.90;99.30;;;;;;5018900;28;20079;-70
2023/01/27 05:58:58;;;;;;;4.05;1.90;;;2.90;99.30;;;;;;5017033;28;20503;-70
2023/01/27 06:01:27;;;;;;;2.78;1.77;;;2.90;99.20;;;;;;5026526;28;20071;-70
2023/01/27 06:03:52;;;;;;;3.47;2.15;;;2.90;99.10;;;;;;5022832;28;20040;-70
2023/01/27 06:06:20;;;;;;;5.47;2.08;;;2.90;99.10;;;;;;5029223;28;20034;-70
2023/01/27 06:08:46;;;;;;;5.20;2.13;;;2.90;99.10;;;;;;5029089;28;20045;-70
2023/01/27 06:11:13;;;;;;;4.22;2.10;;;2.90;99.10;;;;;;5026859;28;20184;-71
2023/01/27 06:13:40;;;;;;;4.47;2.10;;;2.90;99.10;;;;;;5035400;28;20091;-70
2023/01/27 06:16:09;;;;;;;5.53;1.95;;;2.80;99.00;;;;;;5024708;28;20386;-70
2023/01/27 06:18:36;;;;;;;8.38;2.08;;;2.70;99.10;;;;;;5030711;28;20021;-70
2023/01/27 06:21:03;;;;;;;4.13;2.15;;;2.60;99.10;;;;;;5016932;28;20694;-70
2023/01/27 06:23:28;;;;;;;5.28;2.17;;;2.60;99.20;;;;;;5021567;28;20080;-70
2023/01/27 06:25:55;;;;;;;4.70;2.28;;;2.60;99.30;;;;;;5028639;28;20409;-70
2023/01/27 06:28:21;;;;;;;4.47;2.03;;;2.60;99.30;;;;;;5035129;28;20017;-70
2023/01/27 06:30:47;;;;;;;5.85;2.35;;;2.60;99.40;;;;;;5022407;28;20385;-71
2023/01/27 06:33:12;;;;;;;12.77;4.35;;;2.60;99.50;;;;;;5024187;28;20033;-70
2023/01/27 06:35:39;;;;;;;11.77;4.85;;;2.60;99.50;;;;;;5023418;28;20033;-70
2023/01/27 06:38:07;;;;;;;12.80;4.50;;;2.60;99.50;;;;;;5022669;28;20045;-70
2023/01/27 06:40:33;;;;;;;11.80;4.95;;;2.60;99.60;;;;;;5019629;28;20034;-70
2023/01/27 06:42:59;;;;;;;12.40;5.22;;;2.70;99.60;;;;;;5027174;28;20514;-70
2023/01/27 06:45:25;;;;;;;9.52;3.78;;;2.60;99.50;;;;;;5020736;28;20116;-70
2023/01/27 06:47:59;;;;;;;8.95;3.10;;;2.70;99.60;;;;;;5024571;28;20029;-70
2023/01/27 06:50:26;;;;;;;6.88;2.75;;;2.70;99.60;;;;;;5019664;28;20113;-70
2023/01/27 06:52:51;;;;;;;6.97;2.03;;;2.70;99.60;;;;;;5025805;28;20033;-70
2023/01/27 06:55:18;;;;;;;5.38;2.10;;;2.70;99.60;;;;;;5020822;28;20475;-70
2023/01/27 06:57:46;;;;;;;8.23;2.58;;;2.70;99.60;;;;;;5021005;28;20038;-70
2023/01/27 07:00:13;;;;;;;5.72;2.08;;;2.70;99.60;;;;;;5026965;28;20255;-70
2023/01/27 07:02:38;;;;;;;3.65;2.10;;;2.60;99.60;;;;;;5025004;28;20032;-70
2023/01/27 07:05:04;;;;;;;6.65;2.05;;;2.70;99.60;;;;;;5028321;28;20038;-70
2023/01/27 07:07:29;;;;;;;3.28;1.92;;;2.60;99.50;;;;;;5018700;28;20032;-70
2023/01/27 07:09:55;;;;;;;4.38;1.70;;;2.70;99.50;;;;;;5024613;28;20029;-71
2023/01/27 07:12:20;;;;;;;5.03;2.03;;;2.60;99.40;;;;;;5026174;28;20029;-70
2023/01/27 07:14:46;;;;;;;4.80;1.63;;;2.60;99.20;;;;;;5017648;28;20030;-70
2023/01/27 07:17:11;;;;;;;4.30;1.48;;;2.60;99.20;;;;;;5033019;28;20497;-70
2023/01/27 07:19:37;;;;;;;4.47;2.00;;;2.60;99.10;;;;;;5021243;28;20029;-70
2023/01/27 07:22:02;;;;;;;2.97;1.88;;;2.60;99.10;;;;;;5030245;28;20132;-70
2023/01/27 07:24:28;;;;;;;2.95;1.58;;;2.60;99.00;;;;;;5018846;28;20364;-70
2023/01/27 07:26:53;;;;;;;4.40;1.80;;;2.60;99.00;;;;;;5015286;28;20378;-70
2023/01/27 07:29:19;;;;;;;2.67;1.48;;;2.60;98.80;;;;;;5028442;28;20482;-70
2023/01/27 07:31:44;;;;;;;2.35;1.65;;;2.60;98.80;;;;;;5018767;28;20147;-70
2023/01/27 07:34:10;;;;;;;7.82;1.85;;;2.60;98.80;;;;;;5021961;28;20041;-70
2023/01/27 07:36:35;;;;;;;3.40;1.83;;;2.60;98.80;;;;;;5022742;28;20056;-69
2023/01/27 07:39:01;;;;;;;3.72;1.70;;;2.60;98.70;;;;;;5030936;28;20120;-69
2023/01/27 07:41:26;;;;;;;2.17;1.42;;;2.60;98.70;;;;;;5031907;28;20041;-69
2023/01/27 07:43:52;;;;;;;4.90;1.95;;;2.60;98.70;;;;;;5020334;28;20083;-70
2023/01/27 07:46:17;;;;;;;5.15;1.92;;;2.60;98.60;;;;;;5022438;28;20037;-70
2023/01/27 07:48:43;;;;;;;4.80;1.67;;;2.60;98.60;;;;;;5022776;28;20461;-70
2023/01/27 07:51:12;;;;;;;5.07;1.77;;;2.60;98.70;;;;;;5026359;28;20038;-70
2023/01/27 07:53:39;;;;;;;3.38;2.00;;;2.60;98.70;;;;;;5028649;28;20064;-70
2023/01/27 08:09:35;;;;;;;4.80;1.88;;;2.70;98.90;;;;;;4990737;28;20031;-70
2023/01/27 08:12:00;;;;;;;4.40;2.15;;;2.60;98.90;;;;;;5013518;28;20033;-69
2023/01/27 08:14:26;;;;;;;5.20;2.00;;;2.70;99.00;;;;;;5021059;28;20043;-69
2023/01/27 08:16:51;;;;;;;9.63;2.30;;;2.70;99.00;;;;;;5015721;28;20092;-68
2023/01/27 08:19:17;;;;;;;4.60;2.13;;;2.70;99.00;;;;;;5019616;28;20045;-68
2023/01/27 08:21:42;;;;;;;6.32;2.97;;;2.70;99.00;;;;;;5027702;28;20044;-68
2023/01/27 08:24:10;;;;;;;6.88;2.63;;;2.70;99.10;;;;;;5013772;28;20046;-69
2023/01/27 08:26:35;;;;;;;6.75;2.88;;;2.70;99.10;;;;;;5020329;28;20095;-69
2023/01/27 08:29:00;;;;;;;7.20;2.50;;;2.70;99.10;;;;;;5014068;28;20471;-69
2023/01/27 08:31:26;;;;;;;5.10;2.80;;;2.80;99.10;;;;;;5022292;28;20112;-68
2023/01/27 08:33:52;;;;;;;6.30;2.97;;;2.80;99.10;;;;;;5025822;28;20071;-69
2023/01/27 08:36:20;;;;;;;4.38;2.60;;;2.80;99.10;;;;;;5012652;28;20026;-69
2023/01/27 08:38:48;;;;;;;5.65;2.60;;;2.80;99.00;;;;;;5021839;28;20041;-68
2023/01/27 08:41:16;;;;;;;5.70;2.72;;;2.90;98.90;;;;;;5018943;28;20052;-68
2023/01/27 08:43:42;;;;;;;6.55;3.00;;;3.00;98.90;;;;;;5026026;28;20045;-69
2023/01/27 08:46:09;;;;;;;6.78;2.97;;;2.90;98.70;;;;;;5018101;28;20037;-68
2023/01/27 08:48:35;;;;;;;6.25;2.67;;;2.90;98.60;;;;;;5026228;28;20044;-69
2023/01/27 08:51:02;;;;;;;6.47;3.00;;;2.80;98.70;;;;;;5028425;28;20437;-68
2023/01/27 08:53:27;;;;;;;6.05;3.03;;;2.80;98.70;;;;;;5029555;28;20033;-69
2023/01/27 08:55:56;;;;;;;8.20;3.10;;;2.90;98.80;;;;;;5021814;28;20084;-69
2023/01/27 08:58:22;;;;;;;10.05;2.92;;;3.00;98.90;;;;;;5026516;28;20029;-70
2023/01/27 09:00:48;;;;;;;5.65;2.95;;;3.00;98.80;;;;;;5015988;28;20382;-68
2023/01/27 09:03:13;;;;;;;5.05;2.65;;;3.10;98.80;;;;;;5024006;28;20044;-70
2023/01/27 09:05:40;;;;;;;4.40;2.42;;;3.10;98.80;;;;;;5026755;28;20041;-69
2023/01/27 09:08:06;;;;;;;7.07;2.55;;;3.10;98.70;;;;;;5027684;28;20079;-70
2023/01/27 09:10:31;;;;;;;5.80;2.80;;;3.30;98.70;;;;;;5026991;28;20103;-69
2023/01/27 09:12:57;;;;;;;6.43;2.50;;;3.30;98.70;;;;;;5026528;28;20076;-70
2023/01/27 09:15:23;;;;;;;6.43;2.22;;;3.30;98.50;;;;;;5027651;28;20033;-68
2023/01/27 09:17:48;;;;;;;7.90;2.50;;;3.30;98.50;;;;;;5030176;28;20036;-69
2023/01/27 09:20:14;;;;;;;4.28;2.08;;;3.30;98.50;;;;;;5029590;28;20172;-69
2023/01/27 09:22:40;;;;;;;3.67;2.08;;;3.30;98.40;;;;;;5025957;28;20044;-68
2023/01/27 09:25:16;;;;;;;2.53;1.67;;;3.30;98.50;;;;;;5029998;28;20040;-69
2023/01/27 09:27:42;;;;;;;3.63;2.00;;;3.30;98.40;;;;;;5031430;28;20025;-68
2023/01/27 09:30:10;;;;;;;2.65;1.70;;;3.30;98.30;;;;;;5030045;28;20114;-68
2023/01/27 09:32:37;;;;;;;5.97;2.17;;;3.20;98.00;;;;;;5022521;28;20042;-68
2023/01/27 09:35:03;;;;;;;2.53;1.48;;;3.30;98.20;;;;;;5022971;28;20037;-68
2023/01/27 09:37:29;;;;;;;4.05;1.80;;;3.10;98.10;;;;;;5023236;28;20029;-69
2023/01/27 09:39:59;;;;;;;4.00;1.70;;;3.10;98.10;;;;;;5027521;28;20034;-69
2023/01/27 09:43:14;;;;;;;4.18;1.70;;;3.10;98.20;;;;;;5021306;28;20052;-69
2023/01/27 09:46:25;;;;;;;5.25;1.77;;;3.10;98.30;;;;;;5026008;28;20548;-70
2023/01/27 09:49:18;;;;;;;3.50;1.90;;;3.30;98.40;;;;;;5022406;28;20026;-71
2023/01/27 09:51:56;;;;;;;5.03;2.10;;;3.40;98.40;;;;;;5022228;28;20370;-69
2023/01/27 09:54:38;;;;;;;5.68;2.33;;;3.60;98.40;;;;;;5022234;28;20073;-69
2023/01/27 09:57:34;;;;;;;5.72;2.10;;;3.80;98.40;;;;;;5022653;28;20029;-70
2023/01/27 10:00:31;;;;;;;6.32;2.30;;;3.70;98.20;;;;;;5030594;28;20052;-71
2023/01/27 10:03:18;;;;;;;5.55;1.90;;;3.70;98.00;;;;;;5026342;28;20516;-71
2023/01/27 10:06:15;;;;;;;4.45;2.15;;;3.70;97.60;;;;;;5029653;28;20432;-71
2023/01/27 10:08:56;;;;;;;3.50;1.77;;;3.60;97.60;;;;;;5023394;28;20047;-70
2023/01/27 10:11:59;;;;;;;4.45;2.00;;;3.60;97.40;;;;;;5038337;28;20536;-70
2023/01/27 10:14:33;;;;;;;2.95;1.70;;;3.60;97.50;;;;;;5026424;28;20037;-71
2023/01/27 10:17:07;;;;;;;5.43;2.10;;;3.50;97.40;;;;;;5027089;28;20061;-71
2023/01/27 10:19:49;;;;;;;3.47;1.90;;;3.50;97.40;;;;;;5017801;28;20038;-71
2023/01/27 10:22:45;;;;;;;4.50;1.60;;;3.40;97.20;;;;;;5021790;28;20030;-71
2023/01/27 10:25:57;;;;;;;3.40;1.65;;;3.50;97.30;;;;;;5019875;28;20030;-71
2023/01/27 10:28:25;;;;;;;6.28;1.77;;;3.50;97.00;;;;;;5022677;28;20410;-71
2023/01/27 10:30:59;;;;;;;5.40;1.63;;;3.60;96.80;;;;;;5018154;28;20030;-71
2023/01/27 10:33:50;;;;;;;3.97;1.80;;;3.80;97.10;;;;;;5028616;28;20041;-71
2023/01/27 10:36:44;;;;;;;4.38;2.22;;;3.90;96.90;;;;;;5025257;28;20095;-70
2023/01/27 10:39:21;;;;;;;5.40;2.25;;;4.00;96.60;;;;;;5019001;28;20466;-70
2023/01/27 10:42:09;;;;;;;3.33;1.90;;;4.10;96.60;;;;;;5026060;28;20037;-71
2023/01/27 10:44:49;;;;;;;4.15;2.17;;;4.30;96.20;;;;;;5018700;28;20358;-71
2023/01/27 10:47:21;;;;;;;2.95;1.80;;;4.60;96.10;;;;;;5021513;28;20473;-71
2023/01/27 10:50:08;;;;;;;3.95;1.35;;;4.60;95.20;;;;;;5028621;28;20034;-71
2023/01/27 10:52:36;;;;;;;3.17;1.35;;;4.60;94.10;;;;;;5017473;28;20050;-71
2023/01/27 10:55:15;;;;;;;3.53;1.48;;;4.70;94.10;;;;;;5015354;28;20034;-71
2023/01/27 10:57:52;;;;;;;1.88;1.00;;;4.70;93.70;;;;;;5019955;28;20033;-71
2023/01/27 11:00:38;;;;;;;2.05;1.30;;;4.60;93.30;;;;;;5028429;28;20033;-71
2023/01/27 11:03:28;;;;;;;1.60;1.00;;;4.50;93.10;;;;;;5018585;28;20033;-71
2023/01/27 11:06:01;;;;;;;2.47;1.02;;;4.60;92.90;;;;;;5015058;28;20045;-71
2023/01/27 11:08:49;;;;;;;2.20;0.90;;;4.90;93.00;;;;;;5023811;28;20041;-71
2023/01/27 11:14:23;;;;;;;5.25;2.30;;;4.70;91.40;;;;;;5027213;28;20505;-70
2023/01/27 11:16:52;;;;;;;6.18;2.70;;;4.40;90.30;;;;;;5024410;28;20076;-70
2023/01/27 11:19:39;;;;;;;2.60;1.38;;;4.30;91.40;;;;;;5024515;28;20037;-71
2023/01/27 11:22:16;;;;;;;2.95;1.10;;;4.20;91.80;;;;;;5031492;28;20029;-70
2023/01/27 11:24:46;;;;;;;3.17;0.90;;;4.10;91.80;;;;;;5030258;28;20029;-70
2023/01/27 11:27:45;;;;;;;1.83;1.20;;;4.00;92.00;;;;;;5032896;28;20113;-70
2023/01/27 11:30:16;;;;;;;4.65;1.00;;;3.80;91.90;;;;;;5026560;28;20026;-71
2023/01/27 11:33:08;;;;;;;3.50;1.00;;;3.90;92.50;;;;;;5034403;28;20061;-70
2023/01/27 11:35:34;;;;;;;2.30;1.10;;;3.90;92.80;;;;;;5017556;28;20053;-70
2023/01/27 11:37:59;;;;;;;1.45;0.68;;;3.80;92.90;;;;;;5025992;28;20037;-70
2023/01/27 11:40:36;;;;;;;1.83;0.70;;;3.80;92.20;;;;;;5026442;28;20060;-70
2023/01/27 11:43:03;;;;;;;2.05;0.68;;;3.70;91.40;;;;;;5031338;28;20021;-70
2023/01/27 11:45:36;;;;;;;2.33;0.90;;;3.60;90.50;;;;;;5026758;28;20029;-70
2023/01/27 11:48:06;;;;;;;1.88;0.70;;;3.60;91.00;;;;;;5020995;28;20040;-70
2023/01/27 11:50:33;;;;;;;;;;;3.60;90.90;;;;;;5015164;28;20154;-70
2023/01/27 11:53:17;;;;;;;2.53;0.80;;;3.70;91.70;;;;;;5023883;28;19919;-71
2023/01/27 11:55:48;;;;;;;0.75;0.60;;;3.70;92.00;;;;;;5022019;28;20048;-70
2023/01/27 11:58:29;;;;;;;1.67;0.75;;;3.70;91.50;;;;;;5027097;28;20034;-70
2023/01/27 12:01:02;;;;;;;2.75;0.70;;;3.70;91.50;;;;;;5030041;28;20022;-70
2023/01/27 12:03:44;;;;;;;2.40;0.82;;;3.70;91.40;;;;;;5024080;28;20037;-70
2023/01/27 12:06:17;;;;;;;1.23;0.68;;;3.60;91.40;;;;;;5024837;28;20037;-70
2023/01/27 12:08:45;;;;;;;2.28;0.98;;;3.50;91.80;;;;;;5024353;28;20044;-70
2023/01/27 12:11:23;;;;;;;4.00;1.05;;;3.50;92.40;;;;;;5026384;28;20037;-70
2023/01/27 12:13:51;;;;;;;4.15;1.00;;;3.50;92.70;;;;;;5028968;28;20037;-70
2023/01/27 12:16:17;;;;;;;2.60;0.70;;;3.40;92.60;;;;;;5032691;28;20029;-70
2023/01/27 12:19:03;;;;;;;2.92;0.90;;;3.40;92.10;;;;;;5029435;28;20046;-70
2023/01/27 12:21:49;;;;;;;6.63;1.77;;;3.40;91.50;;;;;;5028218;28;20420;-70
2023/01/27 12:24:26;;;;;;;2.58;0.88;;;3.40;91.80;;;;;;5021260;28;20049;-70
2023/01/27 12:26:55;;;;;;;3.92;1.00;;;3.40;91.80;;;;;;5019881;28;20034;-71
2023/01/27 12:29:47;;;;;;;1.73;0.82;;;3.40;91.60;;;;;;5022697;28;20112;-70
2023/01/27 12:32:19;;;;;;;1.95;0.88;;;3.40;92.00;;;;;;5027210;28;20035;-70
2023/01/27 12:34:49;;;;;;;1.15;0.65;;;3.40;91.60;;;;;;5030734;28;20099;-70
2023/01/27 12:37:30;;;;;;;4.60;0.82;;;3.40;91.60;;;;;;5027604;28;20022;-70
2023/01/27 12:40:01;;;;;;;4.22;1.05;;;3.50;91.50;;;;;;5015567;28;20028;-70
2023/01/27 12:42:46;;;;;;;1.90;0.70;;;3.50;91.10;;;;;;5030371;28;20122;-70
2023/01/27 12:45:28;;;;;;;3.35;0.73;;;3.50;90.90;;;;;;5029399;28;20026;-70
2023/01/27 12:48:12;;;;;;;3.00;1.00;;;3.50;90.40;;;;;;5025066;28;20029;-70
2023/01/27 12:50:40;;;;;;;4.32;0.90;;;3.50;90.70;;;;;;5031122;28;20032;-70
2023/01/27 12:53:16;;;;;;;4.40;0.90;;;3.50;91.00;;;;;;5019234;28;20160;-70
2023/01/27 12:56:02;;;;;;;2.47;0.80;;;3.50;91.20;;;;;;5027474;28;20037;-70
2023/01/27 12:58:36;;;;;;;2.58;1.05;;;3.40;91.10;;;;;;5017611;28;20022;-70
2023/01/27 13:01:06;;;;;;;2.08;1.10;;;3.40;90.60;;;;;;5028881;28;20033;-70
2023/01/27 13:03:39;;;;;;;3.07;0.90;;;3.40;90.50;;;;;;5024921;28;20025;-70
2023/01/27 13:06:05;;;;;;;4.57;1.20;;;3.30;90.40;;;;;;5020129;28;20312;-70
2023/01/27 13:08:32;;;;;;;1.75;0.90;;;3.30;90.70;;;;;;5024796;28;20116;-70
2023/01/27 13:11:01;;;;;;;1.65;0.93;;;3.40;91.10;;;;;;5026821;28;20033;-70
2023/01/27 13:13:29;;;;;;;4.85;1.10;;;3.40;91.30;;;;;;5031954;28;20033;-70
2023/01/27 13:16:04;;;;;;;3.97;1.00;;;3.30;90.60;;;;;;5022868;28;20026;-70
2023/01/27 13:18:33;;;;;;;3.05;1.10;;;3.40;91.10;;;;;;5029980;28;20029;-70
2023/01/27 13:21:22;;;;;;;1.65;1.00;;;3.50;91.10;;;;;;5028360;28;20063;-70
2023/01/27 13:23:51;;;;;;;1.77;0.80;;;3.50;91.00;;;;;;5025238;28;20383;-70
2023/01/27 13:26:21;;;;;;;2.78;0.70;;;3.40;90.70;;;;;;5027729;28;20029;-70
2023/01/27 13:28:56;;;;;;;1.90;0.70;;;3.40;89.90;;;;;;5029867;28;20025;-70
2023/01/27 13:31:55;;;;;;;1.63;0.75;;;3.30;89.30;;;;;;5025329;28;20033;-71
2023/01/27 13:34:41;;;;;;;2.30;0.73;;;3.40;89.80;;;;;;5031289;28;20049;-70
2023/01/27 13:37:27;;;;;;;3.63;0.68;;;3.30;89.80;;;;;;5022245;28;20551;-70
2023/01/27 13:40:12;;;;;;;2.03;0.80;;;3.30;89.60;;;;;;5013686;28;20026;-70
2023/01/27 13:42:41;;;;;;;1.98;0.80;;;3.20;88.90;;;;;;5019245;28;20359;-70
2023/01/27 13:45:14;;;;;;;3.90;0.90;;;3.30;89.40;;;;;;5027133;28;20057;-70
2023/01/27 13:47:55;;;;;;;3.65;0.80;;;3.30;89.70;;;;;;5030746;28;20041;-70
2023/01/27 13:50:21;;;;;;;3.88;0.90;;;3.20;89.10;;;;;;5028895;28;20029;-70
2023/01/27 13:52:50;;;;;;;5.50;1.02;;;3.30;89.70;;;;;;5029198;28;20071;-70
2023/01/27 13:55:25;;;;;;;3.53;0.70;;;3.30;90.00;;;;;;5021600;28;20522;-70
2023/01/27 13:58:03;;;;;;;4.55;1.00;;;3.30;90.30;;;;;;5015299;28;20130;-68
2023/01/27 14:00:37;;;;;;;3.03;0.90;;;3.30;89.50;;;;;;5030586;28;20033;-70
2023/01/27 14:03:27;;;;;;;2.40;0.98;;;3.30;89.30;;;;;;5023110;28;20087;-70